createdAt,value
2022-10-30T00:01:02.804Z,3.50
2022-10-30T00:03:29.753Z,4.25
2022-10-30T00:05:56.878Z,3.30
2022-10-30T00:08:25.878Z,3.45
2022-10-30T00:10:53.579Z,3.00
2022-10-30T00:13:21.868Z,3.08
2022-10-30T00:15:54.936Z,3.28
2022-10-30T00:18:21.950Z,3.05
2022-10-30T00:20:49.260Z,3.00
2022-10-30T00:23:16.780Z,3.25
2022-10-30T00:25:43.907Z,3.13
2022-10-30T00:28:10.963Z,2.40
2022-10-30T00:30:38.127Z,3.17
2022-10-30T00:33:05.401Z,3.42
2022-10-30T00:35:32.506Z,3.60
2022-10-30T00:38:01.365Z,2.67
2022-10-30T00:40:28.879Z,2.75
2022-10-30T00:42:55.954Z,2.90
2022-10-30T00:45:22.869Z,2.88
2022-10-30T00:47:55.895Z,2.95
2022-10-30T00:50:30.736Z,2.70
2022-10-30T00:53:08.831Z,2.92
2022-10-30T00:55:46.422Z,2.80
2022-10-30T00:58:17.487Z,3.70
2022-10-30T01:00:49.109Z,2.60
2022-10-30T01:03:17.618Z,2.83
2022-10-30T01:05:48.642Z,2.35
2022-10-30T01:08:15.850Z,3.10
2022-10-30T01:10:43.369Z,3.05
2022-10-30T01:13:11.163Z,3.55
2022-10-30T01:15:53.863Z,3.50
2022-10-30T01:18:23.887Z,3.47
2022-10-30T01:21:03.694Z,3.97
2022-10-30T01:24:14.965Z,3.10
2022-10-30T01:26:57.324Z,3.47
2022-10-30T01:29:52.477Z,4.22
2022-10-30T01:32:28.481Z,4.03
2022-10-30T01:35:10.354Z,3.38
2022-10-30T01:38:00.247Z,3.15
2022-10-30T01:40:28.335Z,3.08
2022-10-30T01:42:57.803Z,2.60
2022-10-30T01:46:01.211Z,3.08
2022-10-30T01:48:44.004Z,4.07
2022-10-30T01:51:20.057Z,4.25
2022-10-30T01:54:24.653Z,2.60
2022-10-30T01:57:10.177Z,3.25
2022-10-30T01:59:45.533Z,2.58
2022-10-30T02:02:13.555Z,2.80
2022-10-30T02:04:41.657Z,2.92
2022-10-30T02:07:09.986Z,2.55
2022-10-30T02:09:43.161Z,3.15
2022-10-30T02:12:13.970Z,3.60
2022-10-30T02:14:45.219Z,4.68
2022-10-30T02:17:13.410Z,2.55
2022-10-30T02:19:41.622Z,2.88
2022-10-30T02:22:08.781Z,2.70
2022-10-30T02:24:35.885Z,2.58
2022-10-30T02:27:05.825Z,3.90
2022-10-30T02:29:32.844Z,3.03
2022-10-30T02:31:59.970Z,3.33
2022-10-30T02:34:27.201Z,3.63
2022-10-30T02:36:54.181Z,2.97
2022-10-30T02:39:21.684Z,3.13
2022-10-30T02:41:49.110Z,2.85
2022-10-30T02:44:16.203Z,3.88
2022-10-30T02:46:43.301Z,3.17
2022-10-30T02:49:11.566Z,2.83
2022-10-30T02:51:38.614Z,3.60
2022-10-30T02:54:05.607Z,3.05
2022-10-30T02:56:32.806Z,3.25
2022-10-30T02:59:04.019Z,3.05
2022-10-30T03:01:31.903Z,3.13
2022-10-30T03:04:02.418Z,3.17
2022-10-30T03:06:29.610Z,3.35
2022-10-30T03:08:58.364Z,3.33
2022-10-30T03:11:25.497Z,2.90
2022-10-30T03:13:54.800Z,3.78
2022-10-30T03:16:23.871Z,2.90
2022-10-30T03:18:52.464Z,3.33
2022-10-30T03:21:21.587Z,3.33
2022-10-30T03:23:50.637Z,3.50
2022-10-30T03:26:19.016Z,2.78
2022-10-30T03:28:50.866Z,3.35
2022-10-30T03:31:19.246Z,3.15
2022-10-30T03:33:51.549Z,2.97
2022-10-30T03:36:18.791Z,3.10
2022-10-30T03:38:45.977Z,3.22
2022-10-30T03:41:16.596Z,3.40
2022-10-30T03:43:44.626Z,3.33
2022-10-30T03:46:11.612Z,3.40
2022-10-30T03:48:40.535Z,4.18
2022-10-30T03:51:09.151Z,3.78
2022-10-30T03:53:36.240Z,3.53
2022-10-30T03:56:07.650Z,3.38
2022-10-30T03:58:44.115Z,3.08
2022-10-30T04:01:13.581Z,3.35
2022-10-30T04:03:43.866Z,4.40
2022-10-30T04:06:12.220Z,2.97
2022-10-30T04:08:39.213Z,3.53
2022-10-30T04:11:06.395Z,3.67
2022-10-30T04:13:33.477Z,3.42
2022-10-30T04:16:10.347Z,3.97
2022-10-30T04:18:37.428Z,3.10
2022-10-30T04:21:05.742Z,3.78
2022-10-30T04:23:38.558Z,3.53
2022-10-30T04:26:05.724Z,3.38
2022-10-30T04:28:36.491Z,3.43
2022-10-30T04:31:07.075Z,3.65
2022-10-30T04:33:34.352Z,3.88
2022-10-30T04:36:01.635Z,3.67
2022-10-30T04:38:31.214Z,2.72
2022-10-30T04:40:58.293Z,3.67
2022-10-30T04:43:39.523Z,4.00
2022-10-30T04:46:06.666Z,3.10
2022-10-30T04:48:35.088Z,3.42
2022-10-30T04:51:02.320Z,2.70
2022-10-30T04:53:30.166Z,3.10
2022-10-30T04:56:07.124Z,3.17
2022-10-30T04:58:34.405Z,3.05
2022-10-30T05:01:06.897Z,3.10
2022-10-30T05:03:35.187Z,3.28
2022-10-30T05:06:13.407Z,3.05
2022-10-30T05:08:40.518Z,4.05
2022-10-30T05:11:21.127Z,2.92
2022-10-30T05:13:48.538Z,3.53
2022-10-30T05:16:17.576Z,3.25
2022-10-30T05:18:44.712Z,3.60
2022-10-30T05:21:12.862Z,3.08
2022-10-30T05:23:39.986Z,2.90
2022-10-30T05:26:10.359Z,3.50
2022-10-30T05:28:38.173Z,3.70
2022-10-30T05:31:05.488Z,2.97
2022-10-30T05:33:53.829Z,2.95
2022-10-30T05:36:23.610Z,3.65
2022-10-30T05:38:50.768Z,3.35
2022-10-30T05:41:29.037Z,2.70
2022-10-30T05:43:56.568Z,3.08
2022-10-30T05:46:25.051Z,3.22
2022-10-30T05:48:55.873Z,4.22
2022-10-30T05:51:24.862Z,2.97
2022-10-30T05:53:57.635Z,4.35
2022-10-30T05:56:29.491Z,5.05
2022-10-30T05:58:59.935Z,3.20
2022-10-30T06:01:27.267Z,2.92
2022-10-30T06:04:04.974Z,2.97
2022-10-30T06:06:33.246Z,4.72
2022-10-30T06:09:06.548Z,3.20
2022-10-30T06:11:59.438Z,3.03
2022-10-30T06:14:46.883Z,2.80
2022-10-30T06:17:14.797Z,2.78
2022-10-30T06:19:55.524Z,3.35
2022-10-30T06:22:39.334Z,3.28
2022-10-30T06:25:14.522Z,3.00
2022-10-30T06:28:13.735Z,2.50
2022-10-30T06:30:42.905Z,2.80
2022-10-30T06:33:13.243Z,2.83
2022-10-30T06:35:49.639Z,3.15
2022-10-30T06:38:21.271Z,2.67
2022-10-30T06:40:52.438Z,3.00
2022-10-30T06:43:38.527Z,3.55
2022-10-30T06:46:15.308Z,3.13
2022-10-30T06:48:43.827Z,2.90
2022-10-30T06:51:14.468Z,3.50
2022-10-30T06:53:44.138Z,3.77
2022-10-30T06:56:41.485Z,2.78
2022-10-30T06:59:29.881Z,3.60
2022-10-30T07:02:11.637Z,3.65
2022-10-30T07:04:59.197Z,4.45
2022-10-30T07:07:27.805Z,3.50
2022-10-30T07:09:58.099Z,5.68
2022-10-30T07:12:43.549Z,3.28
2022-10-30T07:15:31.877Z,3.25
2022-10-30T07:18:24.933Z,3.63
2022-10-30T07:20:57.530Z,3.97
2022-10-30T07:23:25.184Z,3.45
2022-10-30T07:25:58.362Z,3.15
2022-10-30T07:28:36.218Z,3.22
2022-10-30T07:31:20.173Z,3.03
2022-10-30T07:34:14.734Z,2.85
2022-10-30T07:36:49.389Z,4.03
2022-10-30T07:39:30.643Z,3.03
2022-10-30T07:42:23.834Z,3.38
2022-10-30T07:45:23.490Z,3.17
2022-10-30T07:48:09.072Z,4.22
2022-10-30T07:51:02.082Z,3.22
2022-10-30T07:53:29.980Z,3.33
2022-10-30T07:55:58.225Z,3.45
2022-10-30T07:59:03.195Z,3.58
2022-10-30T08:01:53.531Z,4.00
2022-10-30T08:04:33.321Z,3.88
2022-10-30T08:07:10.772Z,3.20
2022-10-30T08:09:37.949Z,4.05
2022-10-30T08:12:05.388Z,4.30
2022-10-30T08:14:32.547Z,4.30
2022-10-30T08:16:59.697Z,4.70
2022-10-30T08:19:26.908Z,4.35
2022-10-30T08:21:56.164Z,3.65
2022-10-30T08:24:30.370Z,4.32
2022-10-30T08:26:59.770Z,3.58
2022-10-30T08:29:28.125Z,3.63
2022-10-30T08:31:55.932Z,4.00
2022-10-30T08:34:23.463Z,3.85
2022-10-30T08:36:54.295Z,3.40
2022-10-30T08:39:21.357Z,4.43
2022-10-30T08:42:00.570Z,3.45
2022-10-30T08:44:33.701Z,4.15
2022-10-30T08:47:41.766Z,3.90
2022-10-30T08:50:09.231Z,4.22
2022-10-30T08:52:37.460Z,3.78
2022-10-30T08:55:07.929Z,3.67
2022-10-30T08:57:38.440Z,4.30
2022-10-30T09:00:06.744Z,4.03
2022-10-30T09:03:06.154Z,3.80
2022-10-30T09:05:58.705Z,3.25
2022-10-30T09:08:46.837Z,4.00
2022-10-30T09:11:29.853Z,4.15
2022-10-30T09:13:58.351Z,4.93
2022-10-30T09:16:25.732Z,3.72
2022-10-30T09:18:52.813Z,3.97
2022-10-30T09:21:19.930Z,3.40
2022-10-30T09:23:51.023Z,3.80
2022-10-30T09:26:37.963Z,4.63
2022-10-30T09:29:17.142Z,3.65
2022-10-30T09:32:08.725Z,3.60
2022-10-30T09:34:41.513Z,4.13
2022-10-30T09:37:27.387Z,4.45
2022-10-30T09:39:59.571Z,4.38
2022-10-30T09:42:43.605Z,3.67
2022-10-30T09:45:44.337Z,3.05
2022-10-30T09:48:42.632Z,4.90
2022-10-30T09:51:29.384Z,4.07
2022-10-30T09:53:57.961Z,3.00
2022-10-30T09:56:40.677Z,3.30
2022-10-30T09:59:26.141Z,3.65
2022-10-30T10:02:09.398Z,3.88
2022-10-30T10:04:51.770Z,3.00
2022-10-30T10:07:42.601Z,3.38
2022-10-30T10:10:46.621Z,3.30
2022-10-30T10:13:42.139Z,3.88
2022-10-30T10:16:21.926Z,2.72
2022-10-30T10:19:00.898Z,3.35
2022-10-30T10:21:29.686Z,3.92
2022-10-30T10:23:59.734Z,3.15
2022-10-30T10:26:45.515Z,3.40
2022-10-30T10:29:43.550Z,2.80
2022-10-30T10:32:28.753Z,3.13
2022-10-30T10:35:27.699Z,3.78
2022-10-30T10:38:25.365Z,3.13
2022-10-30T10:41:36.923Z,2.75
2022-10-30T10:44:24.846Z,2.78
2022-10-30T10:47:13.029Z,3.53
2022-10-30T10:50:01.487Z,3.35
2022-10-30T10:52:52.689Z,2.78
2022-10-30T10:55:23.734Z,3.15
2022-10-30T10:57:52.833Z,4.82
2022-10-30T11:00:25.625Z,2.83
2022-10-30T11:03:07.739Z,3.20
2022-10-30T11:05:39.170Z,3.00
2022-10-30T11:08:33.127Z,2.78
2022-10-30T11:11:04.931Z,2.67
2022-10-30T11:16:27.932Z,2.80
2022-10-30T11:19:04.530Z,2.90
2022-10-30T11:21:35.380Z,3.00
2022-10-30T11:24:02.634Z,3.83
2022-10-30T11:26:34.474Z,2.97
2022-10-30T11:29:18.108Z,2.67
2022-10-30T11:31:45.878Z,2.40
2022-10-30T11:34:18.597Z,2.78
2022-10-30T11:36:51.047Z,2.50
2022-10-30T11:39:37.013Z,4.57
2022-10-30T11:42:04.404Z,2.83
2022-10-30T11:44:39.175Z,3.03
2022-10-30T11:47:07.122Z,2.25
2022-10-30T11:49:37.267Z,3.10
2022-10-30T11:52:05.459Z,2.75
2022-10-30T11:54:41.692Z,3.42
2022-10-30T11:57:22.099Z,3.05
2022-10-30T11:59:51.919Z,3.47
2022-10-30T12:02:43.288Z,3.53
2022-10-30T12:05:39.470Z,3.15
2022-10-30T12:08:09.314Z,3.60
2022-10-30T12:10:42.191Z,3.28
2022-10-30T12:13:18.957Z,3.25
2022-10-30T12:15:49.508Z,2.65
2022-10-30T12:18:22.740Z,2.50
2022-10-30T12:20:57.831Z,3.10
2022-10-30T12:23:27.419Z,3.17
2022-10-30T12:26:00.455Z,3.65
2022-10-30T12:28:32.640Z,4.05
2022-10-30T12:31:37.764Z,3.95
2022-10-30T12:34:34.413Z,2.90
2022-10-30T12:37:32.522Z,3.45
2022-10-30T12:40:12.554Z,3.38
2022-10-30T12:42:51.506Z,3.28
2022-10-30T12:45:44.231Z,3.83
2022-10-30T12:48:34.153Z,3.10
2022-10-30T12:51:25.703Z,3.28
2022-10-30T12:54:17.740Z,3.22
2022-10-30T12:56:49.085Z,3.28
2022-10-30T12:59:28.515Z,4.65
2022-10-30T13:02:36.901Z,4.88
2022-10-30T13:05:13.478Z,3.65
2022-10-30T13:07:48.839Z,3.22
2022-10-30T13:10:39.214Z,3.55
2022-10-30T13:13:32.710Z,2.97
2022-10-30T13:16:07.180Z,2.97
2022-10-30T13:18:34.409Z,3.00
2022-10-30T13:21:11.597Z,3.33
2022-10-30T13:23:45.216Z,3.05
2022-10-30T13:26:31.376Z,3.80
2022-10-30T13:29:01.470Z,3.60
2022-10-30T13:32:06.724Z,3.38
2022-10-30T13:34:52.502Z,3.42
2022-10-30T13:37:31.921Z,3.15
2022-10-30T13:40:14.682Z,4.65
2022-10-30T13:42:56.761Z,2.90
2022-10-30T13:46:01.243Z,3.13
2022-10-30T13:48:33.453Z,2.83
2022-10-30T13:51:25.270Z,3.17
2022-10-30T13:54:17.451Z,3.38
2022-10-30T13:56:47.406Z,4.60
2022-10-30T13:59:49.990Z,3.53
2022-10-30T14:02:50.711Z,3.08
2022-10-30T14:05:25.958Z,3.88
2022-10-30T14:08:06.323Z,3.05
2022-10-30T14:10:46.997Z,3.78
2022-10-30T14:13:50.489Z,3.88
2022-10-30T14:16:40.951Z,2.90
2022-10-30T14:19:15.646Z,3.40
2022-10-30T14:21:52.354Z,3.83
2022-10-30T14:27:03.488Z,3.35
2022-10-30T14:29:37.535Z,3.53
2022-10-30T14:32:45.070Z,3.97
2022-10-30T14:35:34.003Z,2.97
2022-10-30T14:38:09.695Z,4.32
2022-10-30T14:40:39.529Z,3.22
2022-10-30T14:43:20.811Z,3.15
2022-10-30T14:45:58.616Z,3.22
2022-10-30T14:48:44.932Z,3.58
2022-10-30T14:51:21.518Z,3.30
2022-10-30T14:54:17.172Z,3.90
2022-10-30T14:56:54.247Z,4.72
2022-10-30T14:59:32.318Z,3.65
2022-10-30T15:02:22.408Z,3.80
2022-10-30T15:05:09.716Z,4.40
2022-10-30T15:07:42.623Z,4.72
2022-10-30T15:10:34.087Z,2.95
2022-10-30T15:13:22.595Z,3.42
2022-10-30T15:16:04.422Z,2.90
2022-10-30T15:21:07.224Z,1.73
2022-10-30T15:23:39.114Z,1.50
2022-10-30T15:28:39.256Z,1.77
2022-10-30T15:31:07.801Z,1.50
2022-10-30T15:33:38.463Z,3.00
2022-10-30T15:36:06.615Z,1.50
2022-10-30T15:38:33.665Z,2.75
2022-10-30T15:41:06.350Z,1.77
2022-10-30T15:43:38.715Z,1.60
2022-10-30T15:46:10.361Z,1.30
2022-10-30T15:48:41.505Z,1.00
2022-10-30T15:51:21.149Z,0.98
2022-10-30T15:54:00.871Z,0.90
2022-10-30T15:56:44.378Z,0.90
2022-10-30T15:59:35.483Z,1.13
2022-10-30T16:02:02.770Z,1.13
2022-10-30T16:04:36.195Z,1.00
2022-10-30T16:07:19.449Z,1.75
2022-10-30T16:09:54.736Z,0.90
2022-10-30T16:12:28.269Z,1.30
2022-10-30T16:14:56.396Z,1.10
2022-10-30T16:17:25.812Z,1.38
2022-10-30T16:19:56.398Z,1.00
2022-10-30T16:22:29.780Z,1.52
2022-10-30T16:24:58.047Z,1.60
2022-10-30T16:27:25.916Z,1.20
2022-10-30T16:29:56.556Z,1.30
2022-10-30T16:32:27.481Z,1.25
2022-10-30T16:35:02.073Z,1.20
2022-10-30T16:37:35.382Z,1.35
2022-10-30T16:40:17.425Z,1.65
2022-10-30T16:42:55.589Z,1.17
2022-10-30T16:45:25.484Z,1.10
2022-10-30T16:48:07.503Z,1.13
2022-10-30T16:50:38.124Z,1.75
2022-10-30T16:53:18.839Z,2.15
2022-10-30T16:55:46.345Z,1.52
2022-10-30T16:58:15.235Z,1.27
2022-10-30T17:00:51.009Z,1.20
2022-10-30T17:03:24.034Z,1.30
2022-10-30T17:06:00.768Z,2.08
2022-10-30T17:08:41.849Z,1.48
2022-10-30T17:11:33.500Z,1.40
2022-10-30T17:14:04.229Z,1.70
2022-10-30T17:16:34.568Z,2.15
2022-10-30T17:19:42.168Z,1.90
2022-10-30T17:22:14.439Z,1.90
2022-10-30T17:24:41.744Z,2.08
2022-10-30T17:27:42.199Z,2.03
2022-10-30T17:30:44.783Z,1.52
2022-10-30T17:33:37.426Z,2.00
2022-10-30T17:36:06.239Z,3.38
2022-10-30T17:38:37.228Z,1.60
2022-10-30T17:41:08.429Z,1.88
2022-10-30T17:43:49.360Z,1.75
2022-10-30T17:46:20.130Z,1.63
2022-10-30T17:48:48.264Z,2.25
2022-10-30T17:51:16.178Z,1.38
2022-10-30T17:53:43.444Z,1.98
2022-10-30T17:56:20.303Z,2.03
2022-10-30T17:58:47.413Z,3.60
2022-10-30T18:01:17.676Z,3.17
2022-10-30T18:03:44.825Z,1.95
2022-10-30T18:06:17.818Z,2.38
2022-10-30T18:08:48.000Z,2.13
2022-10-30T18:11:22.171Z,2.38
2022-10-30T18:13:51.999Z,2.45
2022-10-30T18:16:20.215Z,2.42
2022-10-30T18:18:47.146Z,1.73
2022-10-30T18:21:19.221Z,1.83
2022-10-30T18:23:54.050Z,2.28
2022-10-30T18:26:24.002Z,1.77
2022-10-30T18:28:52.443Z,1.90
2022-10-30T18:31:21.889Z,1.90
2022-10-30T18:33:48.939Z,1.67
2022-10-30T18:36:23.731Z,1.60
2022-10-30T18:38:56.127Z,1.77
2022-10-30T18:44:01.357Z,1.65
2022-10-30T18:46:30.974Z,2.13
2022-10-30T18:48:58.230Z,2.42
2022-10-30T18:51:27.751Z,2.00
2022-10-30T18:53:57.339Z,1.90
2022-10-30T18:56:26.999Z,2.50
2022-10-30T18:59:00.764Z,1.42
2022-10-30T19:01:32.279Z,2.63
2022-10-30T19:04:02.432Z,1.70
2022-10-30T19:06:29.568Z,1.95
2022-10-30T19:08:58.053Z,2.00
2022-10-30T19:11:26.732Z,2.35
2022-10-30T19:13:54.554Z,1.88
2022-10-30T19:16:24.527Z,2.65
2022-10-30T19:18:51.697Z,1.75
2022-10-30T19:21:25.752Z,1.88
2022-10-30T19:23:58.628Z,2.08
2022-10-30T19:26:25.857Z,2.33
2022-10-30T19:28:52.921Z,2.00
2022-10-30T19:31:20.522Z,2.00
2022-10-30T19:33:54.470Z,2.58
2022-10-30T19:36:33.393Z,2.75
2022-10-30T19:39:07.291Z,3.30
2022-10-30T19:41:36.184Z,2.50
2022-10-30T19:44:03.532Z,2.85
2022-10-30T19:46:31.545Z,2.95
2022-10-30T19:49:00.613Z,2.50
2022-10-30T19:51:30.648Z,2.08
2022-10-30T19:54:02.584Z,2.00
2022-10-30T19:56:34.944Z,1.88
2022-10-30T19:59:03.735Z,2.00
2022-10-30T20:01:31.183Z,2.65
2022-10-30T20:04:02.569Z,3.13
2022-10-30T20:06:33.161Z,2.55
2022-10-30T20:09:04.467Z,2.30
2022-10-30T20:11:32.006Z,2.15
2022-10-30T20:14:02.209Z,2.53
2022-10-30T20:16:30.482Z,2.30
2022-10-30T20:18:57.756Z,2.35
2022-10-30T20:21:29.826Z,2.40
2022-10-30T20:23:59.755Z,2.03
2022-10-30T20:26:30.157Z,2.45
2022-10-30T20:29:05.798Z,2.35
2022-10-30T20:31:32.847Z,2.72
2022-10-30T20:33:59.915Z,2.83
2022-10-30T20:36:26.947Z,2.47
2022-10-30T20:38:54.335Z,2.80
2022-10-30T20:41:29.150Z,2.50
2022-10-30T20:43:56.283Z,2.38
2022-10-30T20:46:23.449Z,2.65
2022-10-30T20:48:50.833Z,3.05
2022-10-30T20:51:18.246Z,2.70
2022-10-30T20:53:45.553Z,3.10
2022-10-30T20:56:12.750Z,2.92
2022-10-30T20:58:41.628Z,2.97
2022-10-30T21:01:09.117Z,3.65
2022-10-30T21:03:39.671Z,3.88
2022-10-30T21:06:09.908Z,2.95
2022-10-30T21:11:34.549Z,3.08
2022-10-30T21:14:01.557Z,2.97
2022-10-30T21:16:28.645Z,2.63
2022-10-30T21:18:56.107Z,2.95
2022-10-30T21:21:26.000Z,3.25
2022-10-30T21:23:57.314Z,3.42
2022-10-30T21:26:24.930Z,4.78
2022-10-30T21:28:52.162Z,3.13
2022-10-30T21:31:19.500Z,2.53
2022-10-30T21:33:47.234Z,2.92
2022-10-30T21:36:16.331Z,3.70
2022-10-30T21:38:44.896Z,3.20
2022-10-30T21:41:15.669Z,2.60
2022-10-30T21:43:43.755Z,3.10
2022-10-30T21:46:12.887Z,3.72
2022-10-30T21:48:41.589Z,3.22
2022-10-30T21:51:11.218Z,3.28
2022-10-30T21:53:38.869Z,2.78
2022-10-30T21:56:16.289Z,2.95
2022-10-30T21:58:43.681Z,2.75
2022-10-30T22:01:22.162Z,3.35
2022-10-30T22:03:49.593Z,3.67
2022-10-30T22:06:21.993Z,2.80
2022-10-30T22:08:51.170Z,3.25
2022-10-30T22:11:19.371Z,3.28
2022-10-30T22:13:47.481Z,3.72
2022-10-30T22:16:16.895Z,3.80
2022-10-30T22:18:44.080Z,2.90
2022-10-30T22:21:13.082Z,3.63
2022-10-30T22:23:41.195Z,3.20
2022-10-30T22:26:14.655Z,3.88
2022-10-30T22:28:42.582Z,3.42
2022-10-30T22:31:12.178Z,3.47
2022-10-30T22:33:39.347Z,4.25
2022-10-30T22:36:08.929Z,3.83
2022-10-30T22:38:36.141Z,3.10
2022-10-30T22:41:13.176Z,3.22
2022-10-30T22:43:42.005Z,3.90
2022-10-30T22:46:09.895Z,4.38
2022-10-30T22:48:38.452Z,4.10
2022-10-30T22:51:13.411Z,3.65
2022-10-30T22:53:42.555Z,3.53
2022-10-30T22:56:21.269Z,4.00
2022-10-30T22:58:49.542Z,4.22
2022-10-30T23:01:25.526Z,3.95
2022-10-30T23:03:55.058Z,3.75
2022-10-30T23:06:22.275Z,3.75
2022-10-30T23:08:51.711Z,3.60
2022-10-30T23:11:18.812Z,4.03
2022-10-30T23:13:46.211Z,3.72
2022-10-30T23:16:19.285Z,3.10
2022-10-30T23:18:48.919Z,4.13
2022-10-30T23:21:22.260Z,4.60
2022-10-30T23:23:49.918Z,3.47
2022-10-30T23:26:22.991Z,3.70
2022-10-30T23:28:51.453Z,3.78
2022-10-30T23:31:28.241Z,3.65
2022-10-30T23:34:01.557Z,3.70
2022-10-30T23:36:29.122Z,3.40
2022-10-30T23:39:04.869Z,3.30
2022-10-30T23:41:34.378Z,4.45
2022-10-30T23:44:08.234Z,4.05
2022-10-30T23:46:36.350Z,4.32
2022-10-30T23:49:04.825Z,3.30
2022-10-30T23:51:32.088Z,4.10
2022-10-30T23:54:00.207Z,3.58
2022-10-30T23:56:29.431Z,3.45
2022-10-30T23:58:57.132Z,3.50
